Time;durP1;ratioP1;P1;durP2;ratioP2;P2;SDS_P1;SDS_P2;PMS_P1;PMS_P2;Temp;Humidity;BMP_temperature;BMP_pressure;BME280_temperature;BME280_humidity;BME280_pressure;Samples;Min_cycle;Max_cycle;Signal;HPM_P1;HPM_P2
2022/04/11 00:00:06;;;;;;;;;;;5.80;90.40;;;;;;6126253;23;19928;-80
2022/04/11 00:02:34;;;;;;;;;;;7.50;90.50;;;;;;6144007;23;19929;-79
2022/04/11 00:05:02;;;;;;;;;;;7.50;90.60;;;;;;6114944;23;20350;-79
2022/04/11 00:07:32;;;;;;;;;;;6.80;90.90;;;;;;6149257;23;19925;-78
2022/04/11 00:10:01;;;;;;;;;;;7.40;90.50;;;;;;6139058;23;19925;-80
2022/04/11 00:12:34;;;;;;;;;;;7.40;90.70;;;;;;6125795;23;19920;-80
2022/04/11 00:15:06;;;;;;;;;;;7.20;91.30;;;;;;6151361;23;19940;-78
2022/04/11 00:17:36;;;;;;;;;;;7.10;91.10;;;;;;6153318;23;19931;-80
2022/04/11 00:20:05;;;;;;;;;;;7.30;91.20;;;;;;6149967;23;19921;-80
2022/04/11 00:22:36;;;;;;;;;;;7.30;91.60;;;;;;6125626;23;19931;-81
2022/04/11 00:25:04;;;;;;;;;;;7.50;91.60;;;;;;6099409;23;19936;-78
2022/04/11 00:27:33;;;;;;;;;;;7.30;91.40;;;;;;6096015;23;19936;-79
2022/04/11 00:30:03;;;;;;;;;;;7.20;91.40;;;;;;6088566;23;19922;-79
2022/04/11 00:32:31;;;;;;;;;;;7.20;91.40;;;;;;6063029;23;19928;-79
2022/04/11 00:35:03;;;;;;;;;;;7.20;92.20;;;;;;6087091;23;19928;-79
2022/04/11 00:37:32;;;;;;;;;;;7.10;91.80;;;;;;6110530;23;19932;-80
2022/04/11 00:40:00;;;;;;;;;;;7.10;92.00;;;;;;6087210;23;19921;-80
2022/04/11 00:42:29;;;;;;;;;;;7.10;91.90;;;;;;6063102;23;19925;-80
2022/04/11 00:44:59;;;;;;;;;;;6.90;92.20;;;;;;6085533;23;19947;-79
2022/04/11 00:47:30;;;;;;;;;;;7.00;92.10;;;;;;6110945;23;19921;-80
2022/04/11 00:49:59;;;;;;;;;;;7.00;92.30;;;;;;6114915;23;19921;-79
2022/04/11 00:52:29;;;;;;;;;;;7.00;92.60;;;;;;6063496;23;19925;-77
2022/04/11 00:54:58;;;;;;;;;;;5.50;92.50;;;;;;6120582;23;19925;-78
2022/04/11 00:57:27;;;;;;;;;;;7.00;92.60;;;;;;6096484;23;19928;-80
2022/04/11 00:59:57;;;;;;;;;;;6.80;92.40;;;;;;6085949;23;19929;-79
2022/04/11 01:02:24;;;;;;;;;;;7.10;92.80;;;;;;6086415;23;19927;-81
2022/04/11 01:04:57;;;;;;;;;;;6.90;93.30;;;;;;6095183;23;19921;-78
2022/04/11 01:07:25;;;;;;;;;;;6.90;93.20;;;;;;6118784;23;20232;-80
2022/04/11 01:09:54;;;;;;;;;;;6.90;92.80;;;;;;6121876;23;19921;-79
2022/04/11 01:12:24;;;;;;;;;;;6.90;93.00;;;;;;6121377;23;19939;-78
2022/04/11 01:14:52;;;;;;;;;;;6.80;93.10;;;;;;6040912;23;19921;-78
2022/04/11 01:17:30;;;;;;;;;;;6.80;93.30;;;;;;6088616;23;19921;-79
2022/04/11 01:19:58;;;;;;;;;;;6.90;94.20;;;;;;6120274;23;19919;-79
2022/04/11 01:22:28;;;;;;;;;;;6.70;93.60;;;;;;6096132;23;19921;-80
2022/04/11 01:24:56;;;;;;;;;;;6.80;93.40;;;;;;6076441;23;19935;-79
2022/04/11 01:27:25;;;;;;;;;;;7.90;94.00;;;;;;6124674;23;19920;-79
2022/04/11 01:29:53;;;;;;;;;;;6.70;93.70;;;;;;6139602;23;19925;-81
2022/04/11 01:32:21;;;;;;;;;;;6.70;93.40;;;;;;6091153;23;19927;-79
2022/04/11 01:34:49;;;;;;;;;;;6.70;94.00;;;;;;6150092;23;19921;-79
2022/04/11 01:37:20;;;;;;;;;;;6.70;93.80;;;;;;6151320;23;19931;-80
2022/04/11 01:39:48;;;;;;;;;;;6.60;93.90;;;;;;6150075;23;19925;-79
2022/04/11 01:42:18;;;;;;;;;;;6.60;94.40;;;;;;6091783;23;19921;-79
2022/04/11 01:44:48;;;;;;;;;;;6.50;94.00;;;;;;6143003;23;19931;-79
2022/04/11 01:47:16;;;;;;;;;;;6.80;94.40;;;;;;6116057;23;19940;-79
2022/04/11 01:49:47;;;;;;;;;;;6.50;94.50;;;;;;6116129;23;20394;-78
2022/04/11 01:52:16;;;;;;;;;;;6.50;94.40;;;;;;6144646;23;19927;-79
2022/04/11 01:54:44;;;;;;;;;;;6.40;94.50;;;;;;6152060;23;19928;-78
2022/04/11 01:57:33;;;;;;;;;;;6.40;94.50;;;;;;6127615;23;19921;-78
2022/04/11 02:00:03;;;;;;;;;;;6.40;95.10;;;;;;6152423;23;19921;-80
2022/04/11 02:02:45;;;;;;;;;;;6.40;94.80;;;;;;6143216;23;19931;-79
2022/04/11 02:05:16;;;;;;;;;;;6.30;94.90;;;;;;6117156;23;19928;-79
2022/04/11 02:07:44;;;;;;;;;;;6.30;94.90;;;;;;6119772;23;19935;-81
2022/04/11 02:10:13;;;;;;;;;;;4.80;94.80;;;;;;6119210;23;20645;-79
2022/04/11 02:12:41;;;;;;;;;;;6.20;95.00;;;;;;6119436;23;19924;-78
2022/04/11 02:15:10;;;;;;;;;;;6.20;95.30;;;;;;6144964;23;20114;-81
2022/04/11 02:17:40;;;;;;;;;;;6.20;95.30;;;;;;6154034;23;19927;-81
2022/04/11 02:20:08;;;;;;;;;;;6.20;95.30;;;;;;6156006;23;19925;-80
2022/04/11 02:22:51;;;;;;;;;;;6.10;95.70;;;;;;6152937;23;19921;-79
2022/04/11 02:25:21;;;;;;;;;;;5.60;95.40;;;;;;6147464;23;19927;-80
2022/04/11 02:27:50;;;;;;;;;;;6.10;95.60;;;;;;6119132;23;19921;-81
2022/04/11 02:30:21;;;;;;;;;;;6.10;95.70;;;;;;6152056;23;19921;-79
2022/04/11 02:32:50;;;;;;;;;;;6.00;96.10;;;;;;6128435;23;19921;-80
2022/04/11 02:35:18;;;;;;;;;;;5.90;96.00;;;;;;6142897;23;19935;-79
2022/04/11 02:37:46;;;;;;;;;;;5.90;96.50;;;;;;6154379;23;19921;-79
2022/04/11 02:40:15;;;;;;;;;;;5.80;96.10;;;;;;6143058;23;19909;-80
2022/04/11 02:43:04;;;;;;;;;;;6.00;96.50;;;;;;6123249;23;19931;-81
2022/04/11 02:45:34;;;;;;;;;;;5.70;96.50;;;;;;6128269;23;20655;-78
2022/04/11 02:48:07;;;;;;;;;;;5.70;97.30;;;;;;6142822;23;19925;-77
2022/04/11 02:50:43;;;;;;;;;;;5.60;96.90;;;;;;6119874;23;19931;-79
2022/04/11 02:53:14;;;;;;;;;;;5.60;97.20;;;;;;6118139;23;19921;-79
2022/04/11 02:55:44;;;;;;;;;;;5.60;97.50;;;;;;6141279;23;19936;-79
2022/04/11 02:58:12;;;;;;;;;;;5.60;97.40;;;;;;6117334;23;20188;-79
2022/04/11 03:00:42;;;;;;;;;;;5.50;97.90;;;;;;6127553;23;19920;-80
2022/04/11 03:03:12;;;;;;;;;;;5.50;97.70;;;;;;6141836;23;19921;-78
2022/04/11 03:05:42;;;;;;;;;;;5.40;97.60;;;;;;6115262;23;19932;-78
2022/04/11 03:08:15;;;;;;;;;;;5.40;97.80;;;;;;6123978;23;19924;-79
2022/04/11 03:10:43;;;;;;;;;;;5.40;97.80;;;;;;6113893;23;19917;-81
2022/04/11 03:13:13;;;;;;;;;;;5.40;98.10;;;;;;6093599;23;19921;-79
2022/04/11 03:15:41;;;;;;;;;;;5.40;98.20;;;;;;6115427;23;19921;-78
2022/04/11 03:18:09;;;;;;;;;;;5.40;98.50;;;;;;6113316;23;19921;-79
2022/04/11 03:20:38;;;;;;;;;;;3.60;98.00;;;;;;6149814;23;19921;-79
2022/04/11 03:23:07;;;;;;;;;;;4.70;98.70;;;;;;6150571;23;19927;-78
2022/04/11 03:25:41;;;;;;;;;;;5.30;98.50;;;;;;6133444;23;19925;-80
2022/04/11 03:28:17;;;;;;;;;;;5.30;98.50;;;;;;6135514;23;19931;-79
2022/04/11 03:30:45;;;;;;;;;;;5.60;98.90;;;;;;6109769;23;19921;-79
2022/04/11 03:33:13;;;;;;;;;;;5.20;99.20;;;;;;6110609;23;19922;-80
2022/04/11 03:35:42;;;;;;;;;;;5.20;99.00;;;;;;6122341;23;19921;-81
2022/04/11 03:38:10;;;;;;;;;;;5.20;99.30;;;;;;6110329;23;19921;-78
2022/04/11 03:40:38;;;;;;;;;;;5.20;99.90;;;;;;6134459;23;19921;-80
2022/04/11 03:43:12;;;;;;;;;;;5.20;99.90;;;;;;6120673;23;19928;-79
2022/04/11 03:45:43;;;;;;;;;;;5.20;99.90;;;;;;6119522;23;19932;-80
2022/04/11 03:48:12;;;;;;;;;;;5.20;99.90;;;;;;6144274;23;19922;-81
2022/04/11 03:50:41;;;;;;;;;;;5.20;99.80;;;;;;6121189;23;19922;-78
2022/04/11 03:53:09;;;;;;;;;;;5.10;99.90;;;;;;6118702;23;19921;-80
2022/04/11 03:55:41;;;;;;;;;;;5.00;99.90;;;;;;6109359;23;19921;-79
2022/04/11 03:58:11;;;;;;;;;;;4.90;99.90;;;;;;6110553;23;19921;-79
2022/04/11 04:00:43;;;;;;;;;;;4.80;99.90;;;;;;6110065;23;19922;-80
2022/04/11 04:03:19;;;;;;;;;;;4.80;99.90;;;;;;6145161;23;19921;-79
2022/04/11 04:05:54;;;;;;;;;;;5.00;99.90;;;;;;6135197;23;19928;-79
2022/04/11 04:08:29;;;;;;;;;;;4.70;99.90;;;;;;6135065;23;19925;-80
2022/04/11 04:11:12;;;;;;;;;;;4.90;99.90;;;;;;6137327;23;19927;-79
2022/04/11 04:13:57;;;;;;;;;;;4.70;99.90;;;;;;6122122;23;19932;-80
2022/04/11 04:16:30;;;;;;;;;;;4.60;99.90;;;;;;6111850;23;19921;-80
2022/04/11 04:19:03;;;;;;;;;;;4.70;99.90;;;;;;6136559;23;19931;-79
2022/04/11 04:21:32;;;;;;;;;;;4.70;99.90;;;;;;6110746;23;19922;-78
2022/04/11 04:24:01;;;;;;;;;;;4.60;99.90;;;;;;6112519;23;19945;-79
2022/04/11 04:26:30;;;;;;;;;;;4.80;99.90;;;;;;6125472;23;19921;-79
2022/04/11 04:29:01;;;;;;;;;;;4.70;99.90;;;;;;6123497;23;19921;-79
2022/04/11 04:31:32;;;;;;;;;;;4.70;99.90;;;;;;6139491;23;19943;-80
2022/04/11 04:33:59;;;;;;;;;;;4.70;99.90;;;;;;6122547;23;19927;-80
2022/04/11 04:36:27;;;;;;;;;;;4.70;99.90;;;;;;6148257;23;19935;-80
2022/04/11 04:38:58;;;;;;;;;;;4.70;99.90;;;;;;6138705;23;19931;-81
2022/04/11 04:41:27;;;;;;;;;;;4.70;99.90;;;;;;6138880;23;19931;-81
2022/04/11 04:43:58;;;;;;;;;;;4.70;99.90;;;;;;6151526;23;19925;-80
2022/04/11 04:46:27;;;;;;;;;;;4.70;99.90;;;;;;6115109;23;19925;-80
2022/04/11 04:49:05;;;;;;;;;;;4.70;99.90;;;;;;6116320;23;19921;-81
2022/04/11 04:51:33;;;;;;;;;;;4.70;99.90;;;;;;6143805;23;19925;-81
2022/04/11 04:54:05;;;;;;;;;;;4.70;99.90;;;;;;6114290;23;19928;-79
2022/04/11 04:56:36;;;;;;;;;;;4.80;99.90;;;;;;6112872;23;19940;-78
2022/04/11 04:59:11;;;;;;;;;;;4.90;99.90;;;;;;6113575;23;19921;-78
2022/04/11 05:01:41;;;;;;;;;;;4.60;99.90;;;;;;6122921;23;19936;-79
2022/04/11 05:04:11;;;;;;;;;;;4.80;99.90;;;;;;6089596;23;19921;-79
2022/04/11 05:06:40;;;;;;;;;;;4.70;99.90;;;;;;6122928;23;19921;-80
2022/04/11 05:09:14;;;;;;;;;;;4.70;99.90;;;;;;6124026;23;19921;-79
2022/04/11 05:11:46;;;;;;;;;;;5.50;99.90;;;;;;6125083;23;20378;-79
2022/04/11 05:14:21;;;;;;;;;;;4.60;99.90;;;;;;6149631;23;19927;-79
2022/04/11 05:16:52;;;;;;;;;;;4.70;99.90;;;;;;6123654;23;19921;-80
2022/04/11 05:19:24;;;;;;;;;;;4.70;99.90;;;;;;6089809;23;19925;-80
2022/04/11 05:21:51;;;;;;;;;;;4.70;99.90;;;;;;6113263;23;19928;-79
2022/04/11 05:24:21;;;;;;;;;;;4.70;99.90;;;;;;6139680;23;20256;-79
2022/04/11 05:26:50;;;;;;;;;;;4.70;99.90;;;;;;6117775;23;19917;-77
2022/04/11 05:29:18;;;;;;;;;;;4.90;99.90;;;;;;6132747;23;19925;-79
2022/04/11 05:31:48;;;;;;;;;;;4.80;99.90;;;;;;6112174;23;19921;-78
2022/04/11 05:34:18;;;;;;;;;;;4.80;99.90;;;;;;6119649;23;19925;-80
2022/04/11 05:36:47;;;;;;;;;;;4.80;99.90;;;;;;6118342;23;20470;-79
2022/04/11 05:39:16;;;;;;;;;;;5.00;99.90;;;;;;6132297;23;19932;-81
2022/04/11 05:41:46;;;;;;;;;;;4.50;99.90;;;;;;6142712;23;20335;-78
2022/04/11 05:44:14;;;;;;;;;;;5.00;99.90;;;;;;6144605;23;20338;-79
2022/04/11 05:46:46;;;;;;;;;;;5.10;99.90;;;;;;6119662;23;19922;-79
2022/04/11 05:49:25;;;;;;;;;;;5.30;99.90;;;;;;6134281;23;19925;-80
2022/04/11 05:51:53;;;;;;;;;;;6.60;99.90;;;;;;6086116;23;19925;-79
2022/04/11 05:54:23;;;;;;;;;;;5.30;99.90;;;;;;6145213;23;19925;-79
2022/04/11 05:56:52;;;;;;;;;;;5.40;99.90;;;;;;6133352;23;19932;-80
2022/04/11 05:59:21;;;;;;;;;;;5.50;99.90;;;;;;6120252;23;19931;-79
2022/04/11 06:01:49;;;;;;;;;;;5.50;99.90;;;;;;6085027;23;19925;-78
2022/04/11 06:04:17;;;;;;;;;;;5.60;99.90;;;;;;6114217;23;19921;-79
2022/04/11 06:06:45;;;;;;;;;;;5.70;99.90;;;;;;6113621;23;19921;-79
2022/04/11 06:09:13;;;;;;;;;;;5.80;99.90;;;;;;6085456;23;19925;-78
2022/04/11 06:11:42;;;;;;;;;;;5.90;99.90;;;;;;6087450;23;19932;-80
2022/04/11 06:14:11;;;;;;;;;;;5.90;99.90;;;;;;6112454;23;19931;-80
2022/04/11 06:16:40;;;;;;;;;;;6.00;99.90;;;;;;6113532;23;19925;-80
2022/04/11 06:19:08;;;;;;;;;;;6.70;99.90;;;;;;6137115;23;19929;-79
2022/04/11 06:21:36;;;;;;;;;;;6.40;99.90;;;;;;6085835;23;19932;-78
2022/04/11 06:24:05;;;;;;;;;;;6.20;99.90;;;;;;6145673;23;19932;-80
2022/04/11 06:26:33;;;;;;;;;;;6.20;99.90;;;;;;6115377;23;19925;-80
2022/04/11 06:29:06;;;;;;;;;;;6.30;99.90;;;;;;6139151;23;19924;-79
2022/04/11 06:31:34;;;;;;;;;;;6.70;99.90;;;;;;6115262;23;19925;-81
2022/04/11 06:34:12;;;;;;;;;;;6.40;99.90;;;;;;6117314;23;19921;-79
2022/04/11 06:36:40;;;;;;;;;;;6.50;99.90;;;;;;6148150;23;19921;-79
2022/04/11 06:39:08;;;;;;;;;;;6.60;99.90;;;;;;6147863;23;19928;-80
2022/04/11 06:41:42;;;;;;;;;;;6.60;99.90;;;;;;6115797;23;19927;-79
2022/04/11 06:44:10;;;;;;;;;;;6.70;99.90;;;;;;6117700;23;19912;-80
2022/04/11 06:47:02;;;;;;;;;;;6.70;99.90;;;;;;6139378;23;19927;-77
2022/04/11 06:49:30;;;;;;;;;;;6.80;99.90;;;;;;6115851;23;19928;-80
2022/04/11 06:51:59;;;;;;;;;;;6.90;99.90;;;;;;6119206;23;19927;-79
2022/04/11 06:54:30;;;;;;;;;;;7.00;99.90;;;;;;6141338;23;19928;-78
2022/04/11 06:56:59;;;;;;;;;;;7.10;99.90;;;;;;6140942;23;19931;-79
2022/04/11 06:59:28;;;;;;;;;;;7.30;99.90;;;;;;6114730;23;19921;-80
2022/04/11 07:01:56;;;;;;;;;;;7.10;99.90;;;;;;6123963;23;20595;-79
2022/04/11 07:04:24;;;;;;;;;;;7.50;99.90;;;;;;6113803;23;19920;-79
2022/04/11 07:06:53;;;;;;;;;;;7.60;99.90;;;;;;6114678;23;19932;-78
2022/04/11 07:09:21;;;;;;;;;;;7.70;99.90;;;;;;6146874;23;19921;-79
2022/04/11 07:11:49;;;;;;;;;;;7.80;99.90;;;;;;6115667;23;19943;-78
2022/04/11 07:14:20;;;;;;;;;;;6.50;99.90;;;;;;6152695;23;19931;-79
2022/04/11 07:16:51;;;;;;;;;;;8.10;99.90;;;;;;6142115;23;19931;-80
2022/04/11 07:19:20;;;;;;;;;;;8.20;99.90;;;;;;6114207;23;19924;-79
2022/04/11 07:21:50;;;;;;;;;;;8.30;99.90;;;;;;6114854;23;19940;-79
2022/04/11 07:24:18;;;;;;;;;;;8.40;99.90;;;;;;6133466;23;19927;-81
2022/04/11 07:26:46;;;;;;;;;;;8.50;99.90;;;;;;6109774;23;19931;-79
2022/04/11 07:29:14;;;;;;;;;;;8.70;99.90;;;;;;6145723;23;19925;-81
2022/04/11 07:31:44;;;;;;;;;;;8.60;99.90;;;;;;6137696;23;19927;-80
2022/04/11 07:34:13;;;;;;;;;;;8.80;99.20;;;;;;6115294;23;19921;-79
2022/04/11 07:36:41;;;;;;;;;;;8.80;98.60;;;;;;6109859;23;19921;-79
2022/04/11 07:39:13;;;;;;;;;;;9.00;98.30;;;;;;6135081;23;19925;-80
2022/04/11 07:41:43;;;;;;;;;;;9.10;97.80;;;;;;6121443;23;19934;-79
2022/04/11 07:44:14;;;;;;;;;;;9.30;97.80;;;;;;6111563;23;19927;-79
2022/04/11 07:46:42;;;;;;;;;;;9.40;97.10;;;;;;6112271;23;19928;-80
2022/04/11 07:49:11;;;;;;;;;;;9.60;96.60;;;;;;6137566;23;19974;-80
2022/04/11 07:51:39;;;;;;;;;;;9.80;96.30;;;;;;6135888;23;19929;-79
2022/04/11 07:54:07;;;;;;;;;;;10.00;96.20;;;;;;6143643;23;19928;-79
2022/04/11 07:56:35;;;;;;;;;;;10.20;96.10;;;;;;6108881;23;20358;-81
2022/04/11 07:59:03;;;;;;;;;;;10.30;95.20;;;;;;6109648;23;19925;-79
2022/04/11 08:01:33;;;;;;;;;;;10.40;95.30;;;;;;6081960;23;19921;-80
2022/04/11 08:04:02;;;;;;;;;;;10.60;94.10;;;;;;6103989;23;19928;-81
2022/04/11 08:06:30;;;;;;;;;;;10.70;93.70;;;;;;6119941;23;19925;-79
2022/04/11 08:09:00;;;;;;;;;;;11.00;93.60;;;;;;6143033;23;19925;-80
2022/04/11 08:11:29;;;;;;;;;;;10.90;92.90;;;;;;6132863;23;19929;-80
2022/04/11 08:14:03;;;;;;;;;;;11.00;92.80;;;;;;6126607;23;19935;-77
2022/04/11 08:16:33;;;;;;;;;;;11.00;92.60;;;;;;6111891;23;20327;-79
2022/04/11 08:19:03;;;;;;;;;;;11.10;93.10;;;;;;6133435;23;20375;-78
2022/04/11 08:21:32;;;;;;;;;;;11.40;92.60;;;;;;6136969;23;20162;-81
2022/04/11 08:24:01;;;;;;;;;;;11.40;91.70;;;;;;6111927;23;19916;-80
2022/04/11 08:26:29;;;;;;;;;;;11.40;91.90;;;;;;6117142;23;19924;-79
2022/04/11 08:28:59;;;;;;;;;;;11.50;91.20;;;;;;6116184;23;19935;-81
2022/04/11 08:31:28;;;;;;;;;;;11.60;91.50;;;;;;6141569;23;19921;-79
2022/04/11 08:33:59;;;;;;;;;;;11.60;91.00;;;;;;6148492;23;19921;-78
2022/04/11 08:36:35;;;;;;;;;;;12.00;91.20;;;;;;6138235;23;19925;-80
2022/04/11 08:39:03;;;;;;;;;;;11.80;91.20;;;;;;6133202;23;19931;-81
2022/04/11 08:41:36;;;;;;;;;;;11.80;90.80;;;;;;6110969;23;19931;-81
2022/04/11 08:44:06;;;;;;;;;;;12.10;90.80;;;;;;6090855;23;19918;-79
2022/04/11 08:46:35;;;;;;;;;;;12.00;91.20;;;;;;6110414;23;19928;-80
2022/04/11 08:49:04;;;;;;;;;;;12.20;90.70;;;;;;6136199;23;19931;-78
2022/04/11 08:51:33;;;;;;;;;;;12.10;90.50;;;;;;6137676;23;19925;-80
2022/04/11 08:54:02;;;;;;;;;;;12.20;89.20;;;;;;6121328;23;19921;-79
2022/04/11 08:56:32;;;;;;;;;;;12.30;90.40;;;;;;6144971;23;19931;-76
2022/04/11 08:59:01;;;;;;;;;;;12.40;88.80;;;;;;6112162;23;19927;-80
2022/04/11 09:01:29;;;;;;;;;;;11.10;87.40;;;;;;6111555;23;19925;-79
2022/04/11 09:03:58;;;;;;;;;;;12.60;87.80;;;;;;6136275;23;19924;-80
2022/04/11 09:06:30;;;;;;;;;;;12.70;87.70;;;;;;6121305;23;19925;-82
2022/04/11 09:09:00;;;;;;;;;;;12.90;88.70;;;;;;6145593;23;19925;-78
2022/04/11 09:11:32;;;;;;;;;;;13.00;87.30;;;;;;6148054;23;20133;-83
2022/04/11 09:14:00;;;;;;;;;;;13.10;87.00;;;;;;6148551;23;19935;-78
2022/04/11 09:17:02;;;;;;;;;;;13.10;86.20;;;;;;6140431;23;19928;-81
2022/04/11 09:19:31;;;;;;;;;;;12.10;85.50;;;;;;6068915;23;19921;-80
2022/04/11 09:22:29;;;;;;;;;;;13.40;84.90;;;;;;6114927;23;19931;-79
2022/04/11 09:25:13;;;;;;;;;;;13.50;85.00;;;;;;6136133;23;19925;-79
2022/04/11 09:27:41;;;;;;;;;;;13.50;84.40;;;;;;6113688;23;19932;-80
2022/04/11 09:30:27;;;;;;;;;;;13.60;83.90;;;;;;6122698;23;19948;-80
2022/04/11 09:32:59;;;;;;;;;;;13.70;82.40;;;;;;6113265;23;19928;-80
2022/04/11 09:35:41;;;;;;;;;;;14.20;83.00;;;;;;6123497;23;19922;-79
2022/04/11 09:38:10;;;;;;;;;;;14.00;83.70;;;;;;6137391;23;19932;-80
2022/04/11 09:40:49;;;;;;;;;;;13.90;81.50;;;;;;6137039;23;19936;-81
2022/04/11 09:43:23;;;;;;;;;;;14.00;82.90;;;;;;6146236;23;19931;-80
2022/04/11 09:45:52;;;;;;;;;;;14.10;81.80;;;;;;6112022;23;19925;-81
2022/04/11 09:48:43;;;;;;;;;;;14.10;81.90;;;;;;6113058;23;19922;-80
2022/04/11 09:51:13;;;;;;;;;;;14.10;79.30;;;;;;6138308;23;19927;-81
2022/04/11 09:53:46;;;;;;;;;;;14.30;79.80;;;;;;6125292;23;19921;-81
2022/04/11 09:56:29;;;;;;;;;;;14.50;80.00;;;;;;6123927;23;19927;-83
2022/04/11 09:58:57;;;;;;;;;;;12.90;77.50;;;;;;6111597;23;19921;-81
2022/04/11 10:01:26;;;;;;;;;;;14.50;78.10;;;;;;6115758;23;19927;-82
2022/04/11 10:03:55;;;;;;;;;;;14.50;76.50;;;;;;6123791;23;19932;-80
2022/04/11 10:06:23;;;;;;;;;;;14.50;77.30;;;;;;6119428;23;19925;-81
2022/04/11 10:08:51;;;;;;;;;;;14.50;76.30;;;;;;6108436;23;19928;-81
2022/04/11 10:11:19;;;;;;;;;;;14.50;76.80;;;;;;6110618;23;19931;-80
2022/04/11 10:13:47;;;;;;;;;;;14.60;76.50;;;;;;6136343;23;19927;-80
2022/04/11 10:16:17;;;;;;;;;;;14.60;74.00;;;;;;6145638;23;19921;-81
2022/04/11 10:18:45;;;;;;;;;;;14.80;73.40;;;;;;6111192;23;19921;-81
2022/04/11 10:21:13;;;;;;;;;;;14.90;73.70;;;;;;6123493;23;19921;-80
2022/04/11 10:24:13;;;;;;;;;;;15.10;73.20;;;;;;6134058;23;19931;-82
2022/04/11 10:26:56;;;;;;;;;;;15.30;72.00;;;;;;6139688;23;19920;-81
2022/04/11 10:29:29;;;;;;;;;;;15.30;72.50;;;;;;6136500;23;19937;-81
2022/04/11 10:32:11;;;;;;;;;;;15.20;73.00;;;;;;6149585;23;19925;-80
2022/04/11 10:34:44;;;;;;;;;;;15.40;72.70;;;;;;6114245;23;19928;-81
2022/04/11 10:37:11;;;;;;;;;;;15.50;72.00;;;;;;6149396;23;19921;-81
2022/04/11 10:39:43;;;;;;;;;;;15.60;72.20;;;;;;6147549;23;20483;-81
2022/04/11 10:42:13;;;;;;;;;;;15.70;69.90;;;;;;6140711;23;19921;-81
2022/04/11 10:44:49;;;;;;;;;;;15.70;69.40;;;;;;6114628;23;19929;-80
2022/04/11 10:47:22;;;;;;;;;;;15.60;66.90;;;;;;6150212;23;19931;-80
2022/04/11 10:49:50;;;;;;;;;;;15.70;67.10;;;;;;6125958;23;19921;-80
2022/04/11 10:52:34;;;;;;;;;;;15.80;67.70;;;;;;6114548;23;19928;-81
2022/04/11 10:55:06;;;;;;;;;;;15.80;66.10;;;;;;6117722;23;19921;-82
2022/04/11 10:57:34;;;;;;;;;;;15.90;66.10;;;;;;6125532;23;19921;-81
2022/04/11 11:00:02;;;;;;;;;;;16.00;65.70;;;;;;6114581;23;19921;-81
2022/04/11 11:05:35;;;;;;;;;;;16.00;65.40;;;;;;6150923;23;19931;-81
2022/04/11 11:08:06;;;;;;;;;;;16.20;64.10;;;;;;6150483;23;19925;-82
2022/04/11 11:10:41;;;;;;;;;;;16.20;64.20;;;;;;6114530;23;19921;-80
2022/04/11 11:13:27;;;;;;;;;;;16.30;65.30;;;;;;6142872;23;19932;-81
2022/04/11 11:15:57;;;;;;;;;;;16.50;64.90;;;;;;6116816;23;19921;-80
2022/04/11 11:18:25;;;;;;;;;;;16.60;65.20;;;;;;6115292;23;19927;-81
2022/04/11 11:20:54;;;;;;;;;;;15.80;65.20;;;;;;6139218;23;20282;-80
2022/04/11 11:23:33;;;;;;;;;;;16.80;64.70;;;;;;6137916;23;20571;-82
2022/04/11 11:26:08;;;;;;;;;;;16.90;64.20;;;;;;6116053;23;19935;-81
2022/04/11 11:28:40;;;;;;;;;;;17.20;65.50;;;;;;6148895;23;19925;-81
2022/04/11 11:31:13;;;;;;;;;;;17.20;64.50;;;;;;6142320;23;19921;-80
2022/04/11 11:33:49;;;;;;;;;;;17.30;64.20;;;;;;6116264;23;19927;-80
2022/04/11 11:36:26;;;;;;;;;;;17.40;64.00;;;;;;6140501;23;19965;-80
2022/04/11 11:38:56;;;;;;;;;;;17.60;64.00;;;;;;6142112;23;19920;-82
2022/04/11 11:41:25;;;;;;;;;;;17.10;63.80;;;;;;6115108;23;19925;-81
2022/04/11 11:43:54;;;;;;;;;;;17.80;63.70;;;;;;6142046;23;19924;-80
2022/04/11 11:46:23;;;;;;;;;;;18.00;63.60;;;;;;6116853;23;19935;-79
2022/04/11 11:48:54;;;;;;;;;;;18.20;62.00;;;;;;6114083;23;19921;-81
2022/04/11 11:51:22;;;;;;;;;;;18.30;61.60;;;;;;6121439;23;19927;-82
2022/04/11 11:53:51;;;;;;;;;;;18.20;60.70;;;;;;6149363;23;19925;-81
2022/04/11 11:56:19;;;;;;;;;;;18.30;60.50;;;;;;6138854;23;19921;-81
2022/04/11 11:58:48;;;;;;;;;;;18.40;61.20;;;;;;6148123;23;19921;-82
2022/04/11 12:01:16;;;;;;;;;;;18.40;60.50;;;;;;6143024;23;19921;-81
2022/04/11 12:06:52;;;;;;;;;;;18.60;61.50;;;;;;6139961;23;19921;-81
2022/04/11 12:09:20;;;;;;;;;;;18.60;60.20;;;;;;6150848;23;19931;-80
2022/04/11 12:11:48;;;;;;;;;;;18.70;59.80;;;;;;6116724;23;19921;-82
2022/04/11 12:14:16;;;;;;;;;;;18.60;60.30;;;;;;6138426;23;19925;-81
2022/04/11 12:17:03;;;;;;;;;;;18.70;60.50;;;;;;6124395;23;19931;-80
2022/04/11 12:19:36;;;;;;;;;;;17.30;59.70;;;;;;6113377;23;19931;-82
2022/04/11 12:22:10;;;;;;;;;;;19.00;60.30;;;;;;6138678;23;19924;-82
2022/04/11 12:24:39;;;;;;;;;;;19.30;59.80;;;;;;6141005;23;19921;-79
2022/04/11 12:27:10;;;;;;;;;;;19.20;60.60;;;;;;6090784;23;19925;-81
2022/04/11 12:29:41;;;;;;;;;;;18.80;59.00;;;;;;6137631;23;19927;-80
2022/04/11 12:32:11;;;;;;;;;;;19.20;59.00;;;;;;6149075;23;19924;-79
2022/04/11 12:34:39;;;;;;;;;;;19.20;58.00;;;;;;6140721;23;19925;-81
2022/04/11 12:37:08;;;;;;;;;;;19.10;57.90;;;;;;6148944;23;19927;-80
2022/04/11 12:39:50;;;;;;;;;;;19.20;58.30;;;;;;6122878;23;19921;-81
2022/04/11 12:42:19;;;;;;;;;;;19.20;57.50;;;;;;6137693;23;19921;-82
2022/04/11 12:44:47;;;;;;;;;;;19.20;57.70;;;;;;6137470;23;19920;-81
2022/04/11 12:47:21;;;;;;;;;;;19.10;58.60;;;;;;6139752;23;19921;-81
2022/04/11 12:49:50;;;;;;;;;;;19.40;59.10;;;;;;6139985;23;19931;-81
2022/04/11 12:52:19;;;;;;;;;;;19.10;58.60;;;;;;6088837;23;19925;-80
2022/04/11 12:54:50;;;;;;;;;;;19.20;59.60;;;;;;6139011;23;20298;-80
2022/04/11 12:57:22;;;;;;;;;;;19.20;58.90;;;;;;6149195;23;19921;-80
2022/04/11 12:59:51;;;;;;;;;;;17.60;57.10;;;;;;6149117;23;19927;-80
2022/04/11 13:02:20;;;;;;;;;;;19.10;58.20;;;;;;6112865;23;19931;-81
2022/04/11 13:04:52;;;;;;;;;;;19.00;58.10;;;;;;6148838;23;19920;-81
2022/04/11 13:07:46;;;;;;;;;;;19.00;58.80;;;;;;6112704;23;19923;-81
2022/04/11 13:10:15;;;;;;;;;;;19.20;58.80;;;;;;6123696;23;19925;-80
2022/04/11 13:12:43;;;;;;;;;;;17.90;57.10;;;;;;6140210;23;19927;-81
2022/04/11 13:15:11;;;;;;;;;;;19.30;57.80;;;;;;6142477;23;19932;-81
2022/04/11 13:20:42;;;;;;;;;;;19.30;65.80;;;;;;6149744;23;20363;-81
2022/04/11 13:23:09;;;;;;;;;;;19.10;62.80;;;;;;6112306;23;19920;-81
2022/04/11 13:25:37;;;;;;;;;;;19.00;70.50;;;;;;6112954;23;19927;-80
2022/04/11 13:28:26;;;;;;;;;;;18.80;73.10;;;;;;6113806;23;19920;-80
2022/04/11 13:30:54;;;;;;;;;;;18.50;74.70;;;;;;6139642;23;20265;-80
2022/04/11 13:33:22;;;;;;;;;;;18.30;76.30;;;;;;6148066;23;19921;-82
2022/04/11 13:35:50;;;;;;;;;;;18.00;77.70;;;;;;6089678;23;19921;-80
2022/04/11 13:38:19;;;;;;;;;;;17.80;78.80;;;;;;6148377;23;19928;-80
2022/04/11 13:40:46;;;;;;;;;;;17.70;78.40;;;;;;6141490;23;19928;-80
2022/04/11 13:43:14;;;;;;;;;;;17.60;78.80;;;;;;6123106;23;19932;-80
2022/04/11 13:45:42;;;;;;;;;;;19.10;81.00;;;;;;6112613;23;19927;-81
2022/04/11 13:48:10;;;;;;;;;;;18.10;80.50;;;;;;6137022;23;19921;-79
2022/04/11 13:50:39;;;;;;;;;;;17.60;81.00;;;;;;6147316;23;19931;-80
2022/04/11 13:53:07;;;;;;;;;;;17.70;80.20;;;;;;6141182;23;19928;-82
2022/04/11 13:55:35;;;;;;;;;;;17.70;80.00;;;;;;6123307;23;19921;-81
2022/04/11 13:58:12;;;;;;;;;;;17.70;81.10;;;;;;6091070;23;19924;-81
2022/04/11 14:00:41;;;;;;;;;;;17.80;80.40;;;;;;6090157;23;19921;-82
2022/04/11 14:03:10;;;;;;;;;;;18.00;80.00;;;;;;6115479;23;19920;-81
2022/04/11 14:05:39;;;;;;;;;;;16.90;79.30;;;;;;6091385;23;19931;-81
2022/04/11 14:08:08;;;;;;;;;;;18.00;79.90;;;;;;6140288;23;19931;-82
2022/04/11 14:10:37;;;;;;;;;;;18.10;79.90;;;;;;6114273;23;19927;-81
2022/04/11 14:13:05;;;;;;;;;;;18.30;79.80;;;;;;6114911;23;19921;-81
2022/04/11 14:15:34;;;;;;;;;;;18.30;79.70;;;;;;6142399;23;19932;-80
2022/04/11 14:18:01;;;;;;;;;;;18.50;79.30;;;;;;6151375;23;19925;-81
2022/04/11 14:20:29;;;;;;;;;;;18.70;80.00;;;;;;6151224;23;19924;-82
2022/04/11 14:22:57;;;;;;;;;;;19.00;78.70;;;;;;6138729;23;19961;-81
2022/04/11 14:25:27;;;;;;;;;;;19.10;78.00;;;;;;6141117;23;19947;-82
2022/04/11 14:28:08;;;;;;;;;;;19.40;77.90;;;;;;6142356;23;19932;-81
2022/04/11 14:30:41;;;;;;;;;;;19.60;77.20;;;;;;6141947;23;19935;-81
2022/04/11 14:33:10;;;;;;;;;;;19.80;76.80;;;;;;6140315;23;19924;-82
2022/04/11 14:35:39;;;;;;;;;;;20.50;76.60;;;;;;6139564;23;20386;-82
2022/04/11 14:38:08;;;;;;;;;;;19.50;75.90;;;;;;6093310;23;19921;-80
2022/04/11 14:40:37;;;;;;;;;;;19.20;76.20;;;;;;6116648;23;19927;-81
2022/04/11 14:43:05;;;;;;;;;;;19.20;76.60;;;;;;6142887;23;19975;-81
2022/04/11 14:45:32;;;;;;;;;;;19.00;77.20;;;;;;6140959;23;19927;-83
2022/04/11 14:48:00;;;;;;;;;;;19.00;78.50;;;;;;6115529;23;19921;-81
2022/04/11 14:50:29;;;;;;;;;;;18.80;78.80;;;;;;6125609;23;19937;-80
2022/04/11 14:52:57;;;;;;;;;;;18.50;79.20;;;;;;6140436;23;19928;-82